TLV6 LLHZ-LLHZ

Flight info

Callsign TLV6
Flight time 0h 10m
Altitude 2000
Route HELI ROUTES
Aircraft AS50/L-V/N

Departure

Time 2026-04-18 19:41
Airport Herzliya Airport (LLHZ)

Arrival

Time 2026-04-18 19:52
Airport Herzliya Airport (LLHZ)
Time Latitude Longitude Altitude Speed Heading
2026-04-18 19:27 32.18152 34.82847 93 ft 0 kts 81°
2026-04-18 19:29 32.18154 34.82867 101 ft 9 kts 94°
2026-04-18 19:29 32.18136 34.82941 106 ft 7 kts 94°
2026-04-18 19:29 32.18212 34.82834 142 ft 54 kts 284°
2026-04-18 19:30 32.18651 34.82866 224 ft 95 kts
2026-04-18 19:30 32.19387 34.83048 288 ft 121 kts 10°
2026-04-18 19:30 32.20233 34.83368 336 ft 138 kts 14°
2026-04-18 19:30 32.21163 34.83765 381 ft 146 kts 19°
2026-04-18 19:31 32.22124 34.84207 429 ft 152 kts 20°
2026-04-18 19:31 32.23137 34.84651 450 ft 155 kts
2026-04-18 19:31 32.24096 34.84207 432 ft 154 kts 306°
2026-04-18 19:31 32.24672 34.83134 411 ft 158 kts 296°
2026-04-18 19:32 32.24411 34.82150 492 ft 143 kts 193°
2026-04-18 19:32 32.23378 34.81918 354 ft 155 kts 194°
2026-04-18 19:32 32.22334 34.81537 340 ft 157 kts 198°
2026-04-18 19:32 32.21299 34.81114 333 ft 158 kts 198°
2026-04-18 19:33 32.20255 34.80731 342 ft 159 kts 196°
2026-04-18 19:33 32.19203 34.80327 299 ft 161 kts 198°
2026-04-18 19:33 32.18188 34.79843 372 ft 155 kts 202°
2026-04-18 19:33 32.17519 34.79489 358 ft 156 kts 204°
2026-04-18 19:34 32.16521 34.79001 396 ft 156 kts 198°
2026-04-18 19:34 32.15132 34.78640 434 ft 154 kts 190°
2026-04-18 19:34 32.14092 34.78337 500 ft 151 kts 194°
2026-04-18 19:34 32.13053 34.78015 447 ft 158 kts 196°
2026-04-18 19:35 32.12343 34.77732 365 ft 163 kts 199°
2026-04-18 19:35 32.11302 34.77272 403 ft 158 kts 198°
2026-04-18 19:35 32.10295 34.76738 389 ft 156 kts 202°
2026-04-18 19:35 32.09291 34.76345 510 ft 153 kts 194°
2026-04-18 19:36 32.08243 34.76021 468 ft 157 kts 197°
2026-04-18 19:36 32.07225 34.75468 370 ft 160 kts 207°
2026-04-18 19:36 32.06240 34.74820 286 ft 164 kts 204°
2026-04-18 19:36 32.05178 34.74546 387 ft 156 kts 196°
2026-04-18 19:37 32.04135 34.74121 351 ft 158 kts 198°
2026-04-18 19:37 32.03075 34.73744 320 ft 160 kts 195°
2026-04-18 19:37 32.02006 34.73435 347 ft 159 kts 192°
2026-04-18 19:37 32.00924 34.73291 412 ft 155 kts 178°
2026-04-18 19:38 31.99907 34.73511 568 ft 149 kts 144°
2026-04-18 19:38 31.99107 34.74329 579 ft 152 kts 145°
2026-04-18 19:38 31.98228 34.75036 611 ft 155 kts 146°
2026-04-18 19:38 31.97294 34.75700 505 ft 160 kts 171°
2026-04-18 19:39 31.97114 34.75156 216 ft 105 kts 39°
2026-04-18 19:39 31.96830 34.75227 123 ft 68 kts 191°
2026-04-18 19:39 31.96699 34.75213 149 ft 5 kts
2026-04-18 19:39 31.96734 34.75214 76 ft 5 kts 13°
2026-04-18 19:40 31.96743 34.75218 62 ft 0 kts 13°
2026-04-18 19:41 31.96744 34.75218 73 ft 2 kts 353°
2026-04-18 19:41 31.96972 34.75225 129 ft 79 kts 21°
2026-04-18 19:41 31.97398 34.75351 590 ft 83 kts 353°
2026-04-18 19:41 31.97979 34.75013 810 ft 102 kts 317°
2026-04-18 19:42 31.98592 34.74308 700 ft 135 kts 311°
2026-04-18 19:42 31.99358 34.73609 794 ft 144 kts 331°
2026-04-18 19:42 32.00352 34.73373 828 ft 154 kts 360°
2026-04-18 19:42 32.01432 34.73329 882 ft 158 kts 358°
2026-04-18 19:43 32.02526 34.73651 780 ft 170 kts 17°
2026-04-18 19:43 32.03673 34.74135 655 ft 176 kts 14°
2026-04-18 19:43 32.04837 34.74537 635 ft 175 kts 21°
2026-04-18 19:43 32.05877 34.75290 554 ft 176 kts 39°
2026-04-18 19:44 32.06940 34.75958 494 ft 176 kts 14°
2026-04-18 19:44 32.08142 34.76201 476 ft 173 kts
2026-04-18 19:44 32.10171 34.77127 477 ft 155 kts 77°
2026-04-18 19:45 32.10416 34.78333 739 ft 137 kts 68°
2026-04-18 19:45 32.10603 34.79416 991 ft 132 kts 92°
2026-04-18 19:45 32.10491 34.80511 1128 ft 142 kts 96°
2026-04-18 19:45 32.10318 34.81689 1134 ft 153 kts 99°
2026-04-18 19:46 32.10140 34.82914 1290 ft 150 kts 101°
2026-04-18 19:46 32.10053 34.84157 1302 ft 159 kts 77°
2026-04-18 19:46 32.10637 34.85164 1477 ft 154 kts 39°
2026-04-18 19:46 32.11065 34.86260 1420 ft 157 kts 100°
2026-04-18 19:47 32.10739 34.87542 1348 ft 166 kts 108°
2026-04-18 19:47 32.10353 34.88820 1396 ft 166 kts 113°
2026-04-18 19:47 32.10184 34.90152 1087 ft 173 kts 71°
2026-04-18 19:47 32.10990 34.91163 801 ft 171 kts 38°
2026-04-18 19:48 32.11825 34.90866 458 ft 143 kts 294°
2026-04-18 19:48 32.12238 34.89817 429 ft 139 kts 289°
2026-04-18 19:48 32.12756 34.88888 468 ft 132 kts 318°
2026-04-18 19:48 32.13540 34.88315 460 ft 134 kts 332°
2026-04-18 19:49 32.14353 34.87828 512 ft 131 kts 330°
2026-04-18 19:49 32.15130 34.87282 556 ft 124 kts 335°
2026-04-18 19:49 32.15945 34.87346 594 ft 125 kts 30°
2026-04-18 19:49 32.16669 34.87928 577 ft 127 kts 32°
2026-04-18 19:50 32.17473 34.88379 579 ft 128 kts 17°
2026-04-18 19:50 32.18310 34.88666 673 ft 124 kts
2026-04-18 19:50 32.19189 34.88546 585 ft 129 kts 337°
2026-04-18 19:50 32.19927 34.87942 535 ft 130 kts 306°
2026-04-18 19:51 32.20310 34.86968 469 ft 129 kts 287°
2026-04-18 19:51 32.20561 34.85942 424 ft 130 kts 272°
2026-04-18 19:51 32.20214 34.84996 389 ft 129 kts 238°
2026-04-18 19:51 32.19716 34.84116 367 ft 128 kts 234°
2026-04-18 19:52 32.19136 34.83320 297 ft 121 kts 210°
2026-04-18 19:52 32.18431 34.83165 237 ft 85 kts 186°
2026-04-18 19:52 32.18154 34.82969 154 ft 16 kts 239°
2026-04-18 19:52 32.18152 34.82887 119 ft 11 kts 278°
2026-04-18 19:53 32.18151 34.82846 107 ft 2 kts 259°
2026-04-18 19:53 32.18151 34.82844 93 ft 0 kts 258°